Time;durP1;ratioP1;P1;durP2;ratioP2;P2;SDS_P1;SDS_P2;PMS_P1;PMS_P2;Temp;Humidity;BMP_temperature;BMP_pressure;BME280_temperature;BME280_humidity;BME280_pressure;Samples;Min_cycle;Max_cycle;Signal;HPM_P1;HPM_P2
2022/01/09 00:00:31;;;;;;;23.98;5.85;;;;;;;-2.39;100.00;101400.16;1564943;90;21487;-90
2022/01/09 00:02:58;;;;;;;27.70;5.95;;;;;;;-2.36;100.00;101398.04;1544203;90;21198;-90
2022/01/09 00:05:25;;;;;;;24.18;5.80;;;;;;;-2.35;100.00;101401.53;1564657;90;21162;-90
2022/01/09 00:07:53;;;;;;;19.62;5.78;;;;;;;-2.36;100.00;101401.17;1571869;90;22775;-90
2022/01/09 00:10:20;;;;;;;23.27;5.70;;;;;;;-2.33;100.00;101391.62;1589174;88;21116;-90
2022/01/09 00:12:47;;;;;;;26.80;6.15;;;;;;;-2.29;100.00;101393.81;1610805;86;21085;-90
2022/01/09 00:15:13;;;;;;;32.38;6.12;;;;;;;-2.27;100.00;101387.05;1664433;86;22171;-90
2022/01/09 00:17:40;;;;;;;26.45;6.10;;;;;;;-2.29;100.00;101390.35;1645631;86;21126;-89
2022/01/09 00:20:08;;;;;;;25.05;6.28;;;;;;;-2.27;100.00;101379.63;1664845;85;22038;-90
2022/01/09 00:25:15;;;;;;;23.50;6.45;;;;;;;-2.25;100.00;101373.20;1664607;86;21080;-91
2022/01/09 00:27:40;;;;;;;;;;;;;;;-2.21;100.00;101375.03;1664223;86;21073;-89
2022/01/09 00:30:11;;;;;;;28.95;5.97;;;;;;;-2.25;100.00;101361.82;1664790;86;20544;-90
2022/01/09 00:32:38;;;;;;;20.27;5.78;;;;;;;-2.21;100.00;101367.94;1665194;85;21315;-90
2022/01/09 00:35:07;;;;;;;25.12;5.90;;;;;;;-2.21;100.00;101363.16;1664842;86;21010;-90
2022/01/09 00:37:33;;;;;;;24.80;5.45;;;;;;;-2.22;100.00;101364.97;1665105;86;21077;-90
2022/01/09 00:39:59;;;;;;;27.62;5.47;;;;;;;-2.21;100.00;101357.88;1664991;85;20919;-90
2022/01/09 00:42:25;;;;;;;24.45;5.60;;;;;;;-2.19;100.00;101350.14;1665148;85;21689;-91
2022/01/09 00:44:51;;;;;;;22.93;5.58;;;;;;;-2.20;100.00;101344.53;1664822;85;21147;-90
2022/01/09 00:47:17;;;;;;;27.70;6.12;;;;;;;-2.20;100.00;101339.25;1665095;85;21062;-90
2022/01/09 00:49:44;;;;;;;29.15;5.67;;;;;;;-2.20;100.00;101334.47;1664932;85;21022;-90
2022/01/09 00:52:10;;;;;;;26.82;6.28;;;;;;;-2.23;100.00;101336.92;1664961;84;21133;-91
2022/01/09 00:54:36;;;;;;;29.55;6.37;;;;;;;-2.21;100.00;101331.47;1664801;85;21010;-91
2022/01/09 00:57:02;;;;;;;27.15;6.47;;;;;;;-2.22;100.00;101329.83;1665271;84;21106;-90
2022/01/09 00:59:28;;;;;;;24.45;5.60;;;;;;;-2.24;100.00;101332.61;1666235;86;21057;-91
2022/01/09 01:01:55;;;;;;;24.75;5.28;;;;;;;-2.22;100.00;101320.09;1666505;86;21634;-89
2022/01/09 01:04:21;;;;;;;22.15;5.47;;;;;;;-2.20;100.00;101318.13;1666356;86;21009;-90
2022/01/09 01:06:51;;;;;;;21.62;5.67;;;;;;;-2.20;100.00;101317.31;1643427;86;21141;-91
2022/01/09 01:09:20;;;;;;;24.10;5.50;;;;;;;-2.19;100.00;101307.08;1665820;84;21573;-90
2022/01/09 01:11:46;;;;;;;23.77;5.85;;;;;;;-2.16;100.00;101303.62;1666211;82;21110;-92
2022/01/09 01:14:13;;;;;;;19.98;5.85;;;;;;;-2.12;100.00;101298.37;1666179;86;21676;-90
2022/01/09 01:16:43;;;;;;;24.72;5.90;;;;;;;-2.10;100.00;101296.88;1617610;88;21081;-90
2022/01/09 01:19:11;;;;;;;19.80;5.75;;;;;;;-2.09;100.00;101295.88;1618025;88;21064;-92
2022/01/09 01:21:37;;;;;;;27.17;6.85;;;;;;;-2.10;100.00;101292.91;1583078;89;21171;-89
2022/01/09 01:24:03;;;;;;;24.20;6.12;;;;;;;-2.11;100.00;101284.17;1582990;89;21083;-90
2022/01/09 01:26:33;;;;;;;18.32;5.67;;;;;;;-2.10;100.00;101278.39;1583313;89;21117;-89
2022/01/09 01:29:01;;;;;;;21.30;5.83;;;;;;;-2.06;100.00;101266.52;1582771;89;21075;-90
2022/01/09 01:31:30;;;;;;;25.37;6.03;;;;;;;-2.08;100.00;101258.77;1582930;89;21532;-90
2022/01/09 01:33:56;;;;;;;22.27;4.58;;;;;;;-2.06;100.00;101247.56;1583106;89;21643;-90
2022/01/09 01:36:22;;;;;;;19.73;4.92;;;;;;;-2.04;100.00;101248.70;1583120;89;21138;-89
2022/01/09 01:38:48;;;;;;;31.70;5.10;;;;;;;-2.04;100.00;101243.42;1559140;89;21026;-92
2022/01/09 01:41:14;;;;;;;18.90;4.60;;;;;;;-2.00;100.00;101236.85;1582996;89;21155;-89
2022/01/09 01:43:41;;;;;;;18.60;4.90;;;;;;;-2.00;100.00;101233.36;1562791;90;21717;-89
2022/01/09 01:46:07;;;;;;;24.18;4.80;;;;;;;-2.01;100.00;101235.17;1559557;90;21526;-89
2022/01/09 01:48:33;;;;;;;20.17;4.47;;;;;;;-1.96;100.00;101223.64;1579798;89;21563;-89
2022/01/09 01:50:59;;;;;;;15.10;4.20;;;;;;;-1.95;100.00;101225.28;1582894;89;21137;-91
2022/01/09 01:53:26;;;;;;;18.80;4.70;;;;;;;-1.94;100.00;101208.94;1582825;89;21548;-90
2022/01/09 01:55:55;;;;;;;19.62;5.70;;;;;;;-1.91;100.00;101209.94;1583035;89;21263;-89
2022/01/09 01:58:24;;;;;;;21.42;4.87;;;;;;;-1.89;100.00;101209.28;1582778;89;21039;-90
2022/01/09 02:00:54;;;;;;;22.95;5.12;;;;;;;-1.88;100.00;101203.03;1582981;89;21126;-90
2022/01/09 02:03:20;;;;;;;34.38;5.85;;;;;;;-1.88;100.00;101202.53;1579857;89;21119;-89
2022/01/09 02:05:46;;;;;;;17.05;5.28;;;;;;;-1.87;100.00;101202.86;1583068;89;21174;-90
2022/01/09 02:08:13;;;;;;;20.43;4.72;;;;;;;-1.83;100.00;101196.74;1582940;89;21296;-90
2022/01/09 02:10:43;;;;;;;23.80;5.42;;;;;;;-1.86;100.00;101198.39;1583481;89;21791;-91
2022/01/09 02:13:09;;;;;;;22.75;5.15;;;;;;;-1.86;100.00;101190.47;1597703;85;21089;-91
2022/01/09 02:15:45;;;;;;;20.05;5.15;;;;;;;-1.86;100.00;101189.15;1638061;86;21069;-91
2022/01/09 02:18:18;;;;;;;22.98;4.80;;;;;;;-1.82;100.00;101190.50;1647854;86;21101;-91
2022/01/09 02:20:45;;;;;;;20.32;4.65;;;;;;;-1.81;100.00;101189.49;1666304;86;21077;-90
2022/01/09 02:23:14;;;;;;;29.65;5.05;;;;;;;-1.82;100.00;101185.21;1666470;86;21206;-91
2022/01/09 02:25:41;;;;;;;16.60;5.05;;;;;;;-1.80;100.00;101190.31;1665855;86;21106;-91
2022/01/09 02:28:12;;;;;;;23.22;5.25;;;;;;;-1.79;100.00;101186.67;1666290;86;21478;-91
2022/01/09 02:30:38;;;;;;;19.77;5.05;;;;;;;-1.77;100.00;101190.80;1665776;84;21077;-90
2022/01/09 02:33:11;;;;;;;24.43;5.65;;;;;;;-1.75;100.00;101182.73;1666149;86;21578;-90
2022/01/09 02:35:39;;;;;;;28.52;5.25;;;;;;;-1.74;100.00;101175.13;1588239;88;21588;-90
2022/01/09 02:38:06;;;;;;;17.70;4.78;;;;;;;-1.72;100.00;101175.30;1599356;89;21718;-90
2022/01/09 02:40:34;;;;;;;26.73;5.03;;;;;;;-1.70;100.00;101172.50;1613437;88;21102;-91
2022/01/09 02:43:00;;;;;;;19.55;5.25;;;;;;;-1.68;100.00;101154.15;1612983;88;21079;-91
2022/01/09 02:45:27;;;;;;;15.03;4.25;;;;;;;-1.68;100.00;101148.86;1613019;88;21020;-90
2022/01/09 02:48:00;;;;;;;19.50;4.62;;;;;;;-1.69;100.00;101150.37;1613103;88;21405;-91
2022/01/09 02:52:59;;;;;;;17.90;4.22;;;;;;;-1.65;100.00;101141.95;1613588;88;21632;-90
2022/01/09 02:55:25;;;;;;;18.75;4.30;;;;;;;-1.60;100.00;101136.97;1612556;88;21102;-90
2022/01/09 02:57:58;;;;;;;11.33;3.90;;;;;;;-1.62;100.00;101132.37;1617525;87;21035;-90
2022/01/09 03:00:34;;;;;;;19.60;4.17;;;;;;;-1.60;100.00;101132.19;1535168;93;21410;-91
2022/01/09 03:03:01;;;;;;;20.92;4.78;;;;;;;-1.60;100.00;101135.66;1536713;92;21553;-90
2022/01/09 03:05:29;;;;;;;26.35;4.50;;;;;;;-1.57;100.00;101130.53;1550997;91;20986;-91
2022/01/09 03:07:55;;;;;;;19.07;4.17;;;;;;;-1.55;100.00;101133.03;1550612;92;21141;-90
2022/01/09 03:10:23;;;;;;;19.65;4.42;;;;;;;-1.53;100.00;101128.37;1550931;92;21129;-93
2022/01/09 03:12:52;;;;;;;19.32;4.47;;;;;;;-1.53;100.00;101133.19;1550888;92;21118;-91
2022/01/09 03:15:19;;;;;;;17.62;3.55;;;;;;;-1.51;100.00;101125.08;1550885;92;21097;-90
2022/01/09 03:17:45;;;;;;;18.12;4.40;;;;;;;-1.57;100.00;101108.08;1551135;92;21109;-90
2022/01/09 03:20:17;;;;;;;17.40;4.42;;;;;;;-1.48;100.00;101112.85;1550850;92;21158;-91
2022/01/09 03:22:44;;;;;;;21.20;4.50;;;;;;;-1.47;100.00;101115.34;1550781;92;21968;-91
2022/01/09 03:25:11;;;;;;;26.68;4.70;;;;;;;-1.47;100.00;101109.20;1550844;92;21104;-90
2022/01/09 03:27:39;;;;;;;20.68;4.53;;;;;;;-1.44;100.00;101108.40;1551071;92;21041;-90
2022/01/09 03:30:08;;;;;;;17.05;4.53;;;;;;;-1.45;100.00;101102.77;1550976;92;21042;-91
2022/01/09 03:32:37;;;;;;;22.90;4.53;;;;;;;-1.43;100.00;101102.61;1554653;91;21102;-91
2022/01/09 03:35:11;;;;;;;23.02;4.47;;;;;;;-1.41;100.00;101098.80;1545838;92;21134;-91
2022/01/09 03:37:41;;;;;;;13.98;4.03;;;;;;;-1.39;100.00;101082.27;1501748;95;21101;-91
2022/01/09 03:40:12;;;;;;;17.65;4.40;;;;;;;-1.41;100.00;101099.31;1502300;95;20986;-91
2022/01/09 03:42:39;;;;;;;20.45;4.58;;;;;;;-1.40;100.00;101091.20;1501313;95;21624;-91
2022/01/09 03:45:09;;;;;;;21.05;4.90;;;;;;;-1.39;100.00;101088.05;1501515;95;21124;-90
2022/01/09 03:47:35;;;;;;;15.93;4.20;;;;;;;-1.38;100.00;101095.00;1460036;98;21113;-92
2022/01/09 03:50:05;;;;;;;21.60;4.40;;;;;;;-1.39;100.00;101084.91;1460090;98;21937;-91
2022/01/09 03:52:31;;;;;;;20.88;4.37;;;;;;;-1.38;100.00;101081.28;1462420;97;21030;-91
2022/01/09 03:55:07;;;;;;;;;;;;;;;;;;;;;
2022/01/09 03:57:25;;;;;;;20.27;4.17;;;;;;;-1.33;100.00;101070.69;1467358;95;21146;-91
2022/01/09 03:59:51;;;;;;;18.73;4.22;;;;;;;-1.32;100.00;101063.92;1505684;93;20998;-92
2022/01/09 04:02:17;;;;;;;14.78;4.35;;;;;;;-1.31;100.00;101054.17;1505926;95;21177;-91
2022/01/09 04:04:43;;;;;;;16.77;4.20;;;;;;;-1.29;100.00;101050.87;1505666;93;21114;-90
2022/01/09 04:07:10;;;;;;;18.67;4.30;;;;;;;-1.28;100.00;101047.22;1506147;93;21940;-90
2022/01/09 04:09:40;;;;;;;19.98;4.83;;;;;;;-1.28;100.00;101041.42;1505521;95;21511;-91
2022/01/09 04:12:30;;;;;;;19.30;4.80;;;;;;;-1.27;100.00;101043.56;1505522;95;21019;-91
2022/01/09 04:14:49;;;;;;;22.17;4.65;;;;;;;-1.28;100.00;101047.22;1505545;94;21173;-91
2022/01/09 04:19:54;;;;;;;20.88;4.42;;;;;;;-1.28;100.00;101050.69;1436063;98;21363;-90
2022/01/09 04:22:20;;;;;;;15.08;3.87;;;;;;;-1.28;100.00;101044.58;1436336;98;21676;-90
2022/01/09 04:24:47;;;;;;;25.97;4.40;;;;;;;-1.24;100.00;101036.11;1436261;98;21136;-90
2022/01/09 04:27:13;;;;;;;22.27;4.95;;;;;;;-1.23;100.00;101036.45;1419088;99;22027;-90
2022/01/09 04:29:39;;;;;;;20.45;4.87;;;;;;;-1.23;100.00;101037.78;1435975;98;21139;-90
2022/01/09 04:32:07;;;;;;;24.50;5.45;;;;;;;-1.23;100.00;101031.67;1436375;98;21155;-90
2022/01/09 04:34:33;;;;;;;18.23;5.20;;;;;;;-1.23;100.00;101033.81;1455365;96;21065;-92
2022/01/09 04:37:00;;;;;;;22.67;4.92;;;;;;;-1.23;100.00;101025.88;1475431;96;21197;-91
2022/01/09 04:39:28;;;;;;;16.97;4.78;;;;;;;-1.22;100.00;101022.73;1475144;96;21157;-93
2022/01/09 04:41:54;;;;;;;17.35;4.25;;;;;;;-1.20;100.00;101020.75;1475815;96;21114;-91
2022/01/09 04:44:21;;;;;;;21.45;5.10;;;;;;;-1.19;100.00;101021.07;1487298;95;22626;-91
2022/01/09 04:46:57;;;;;;;17.80;4.97;;;;;;;-1.21;100.00;101013.30;1491552;94;21216;-90
2022/01/09 04:49:15;;;;;;;26.55;5.62;;;;;;;-1.20;100.00;101011.50;1496579;94;22268;-90
2022/01/09 04:51:41;;;;;;;16.15;4.92;;;;;;;-1.17;100.00;101008.51;1530823;93;21135;-90
2022/01/09 04:54:07;;;;;;;24.32;4.80;;;;;;;-1.16;100.00;101008.32;1526471;92;21425;-90
2022/01/09 04:56:33;;;;;;;22.48;5.45;;;;;;;-1.15;100.00;101012.63;1597403;86;21137;-90
2022/01/09 04:59:04;;;;;;;18.30;4.40;;;;;;;-1.13;100.00;101015.59;1642274;85;20997;-90
2022/01/09 05:01:29;;;;;;;20.35;4.33;;;;;;;-1.11;100.00;101021.04;1639703;87;21016;-89
2022/01/09 05:03:55;;;;;;;13.18;3.70;;;;;;;-1.09;100.00;101018.20;1640504;87;21589;-90
2022/01/09 05:06:24;;;;;;;12.88;4.00;;;;;;;-1.07;100.00;101007.78;1637597;87;21051;-90
2022/01/09 05:08:50;;;;;;;20.52;4.20;;;;;;;-1.04;100.00;101011.91;1639300;86;21123;-89
2022/01/09 05:11:16;;;;;;;16.48;4.50;;;;;;;-1.01;100.00;101018.17;1640390;87;21039;-90
2022/01/09 05:13:42;;;;;;;14.38;4.03;;;;;;;-0.99;100.00;101015.68;1640115;87;21066;-90
2022/01/09 05:16:08;;;;;;;15.32;4.00;;;;;;;-0.98;100.00;101008.56;1639976;87;21166;-90
2022/01/09 05:18:51;;;;;;;;;;;;;;;;;;;;;
2022/01/09 05:21:02;;;;;;;16.37;4.25;;;;;;;-0.92;100.00;101005.22;1593287;90;21076;-90
2022/01/09 05:23:28;;;;;;;25.88;5.25;;;;;;;-0.90;100.00;101002.42;1593370;89;21715;-90
2022/01/09 05:25:56;;;;;;;13.00;3.40;;;;;;;-0.87;100.00;101006.03;1593923;90;21018;-90
2022/01/09 05:28:22;;;;;;;11.68;3.33;;;;;;;-0.86;100.00;101007.17;1527075;93;21581;-91
2022/01/09 05:30:50;;;;;;;14.85;4.25;;;;;;;-0.81;100.00;101004.02;1566012;91;21020;-90
2022/01/09 05:33:16;;;;;;;14.80;3.90;;;;;;;-0.80;100.00;101005.65;1565852;91;21159;-90
2022/01/09 05:35:43;;;;;;;19.20;4.53;;;;;;;-0.78;100.00;100994.41;1565406;90;21049;-90
2022/01/09 05:38:09;;;;;;;13.32;3.85;;;;;;;-0.75;100.00;101003.31;1565306;91;21111;-90
2022/01/09 05:40:35;;;;;;;16.62;4.53;;;;;;;-0.74;100.00;100993.86;1565416;91;21817;-89
2022/01/09 05:43:01;;;;;;;13.05;4.28;;;;;;;-0.72;100.00;100995.02;1565249;91;21134;-90
2022/01/09 05:45:29;;;;;;;18.25;5.40;;;;;;;-0.70;100.00;100990.38;1565099;90;21127;-90
2022/01/09 05:47:55;;;;;;;10.65;4.20;;;;;;;-0.70;100.00;100995.17;1519497;94;21406;-90
2022/01/09 05:50:21;;;;;;;10.05;4.00;;;;;;;-0.66;100.00;101000.11;1482056;94;21085;-90
2022/01/09 05:52:47;;;;;;;10.35;4.20;;;;;;;-0.66;100.00;100992.99;1538961;92;22181;-90
2022/01/09 05:55:13;;;;;;;11.78;3.98;;;;;;;-0.65;100.00;100993.30;1544348;92;21153;-91
2022/01/09 05:57:41;;;;;;;14.75;3.87;;;;;;;-0.65;100.00;100995.13;1546939;90;21588;-90
2022/01/09 06:00:08;;;;;;;15.48;4.33;;;;;;;-0.65;100.00;100981.90;1557586;92;21585;-90
2022/01/09 06:02:34;;;;;;;12.13;3.83;;;;;;;-0.65;100.00;100988.52;1557741;90;21053;-91
2022/01/09 06:05:00;;;;;;;13.85;4.87;;;;;;;-0.63;100.00;100982.05;1557353;90;21864;-90
2022/01/09 06:07:32;;;;;;;9.88;3.67;;;;;;;-0.60;100.00;100983.52;1557898;90;20950;-90
2022/01/09 06:10:00;;;;;;;15.70;4.35;;;;;;;-0.58;100.00;100984.18;1557550;90;21639;-92
2022/01/09 06:12:25;;;;;;;9.95;3.10;;;;;;;-0.58;100.00;100977.06;1557085;90;21074;-91
2022/01/09 06:14:52;;;;;;;10.72;3.20;;;;;;;-0.56;100.00;100972.42;1557550;92;21133;-91
2022/01/09 06:17:18;;;;;;;7.60;2.98;;;;;;;-0.53;100.00;100967.25;1557467;92;21144;-91
2022/01/09 06:19:44;;;;;;;12.98;2.90;;;;;;;-0.51;100.00;100955.98;1557546;90;22173;-91
2022/01/09 06:22:10;;;;;;;11.18;3.27;;;;;;;-0.51;100.00;100951.52;1557489;90;21102;-92
2022/01/09 06:24:36;;;;;;;7.37;2.77;;;;;;;-0.48;100.00;100938.42;1567383;89;21633;-91
2022/01/09 06:27:04;;;;;;;10.03;3.37;;;;;;;-0.47;100.00;100936.12;1595498;88;21169;-90
2022/01/09 06:29:30;;;;;;;7.97;2.60;;;;;;;-0.45;100.00;100934.09;1583161;89;22229;-92
2022/01/09 06:31:56;;;;;;;12.58;3.55;;;;;;;-0.41;100.00;100928.78;1582908;90;21099;-93
2022/01/09 06:34:22;;;;;;;15.98;4.78;;;;;;;-0.41;100.00;100916.02;1583079;90;20937;-92
2022/01/09 06:36:50;;;;;;;18.32;5.90;;;;;;;-0.42;100.00;100917.85;1583016;90;21032;-91
2022/01/09 06:39:16;;;;;;;21.27;5.78;;;;;;;-0.37;100.00;100923.44;1523417;94;21707;-91
2022/01/09 06:41:44;;;;;;;14.00;3.25;;;;;;;-0.33;100.00;100922.06;1527140;94;21106;-92
2022/01/09 06:44:10;;;;;;;9.88;2.70;;;;;;;-0.26;100.00;100921.68;1535298;91;21533;-91
2022/01/09 06:46:45;;;;;;;6.55;2.60;;;;;;;-0.25;100.00;100927.29;1544958;91;21122;-90
2022/01/09 06:49:10;;;;;;;8.50;3.05;;;;;;;-0.20;100.00;100925.94;1564455;90;21023;-90
2022/01/09 06:51:39;;;;;;;9.58;2.70;;;;;;;-0.15;100.00;100926.20;1564885;91;21062;-91
2022/01/09 06:54:06;;;;;;;12.47;3.52;;;;;;;-0.15;100.00;100924.87;1564742;90;21547;-92
2022/01/09 06:56:34;;;;;;;10.13;3.00;;;;;;;-0.17;100.00;100922.93;1536555;92;21121;-90
2022/01/09 06:59:01;;;;;;;9.75;2.90;;;;;;;-0.18;100.00;100930.03;1528597;92;21133;-91
2022/01/09 07:01:30;;;;;;;10.55;3.40;;;;;;;-0.20;100.00;100920.64;1524499;94;21154;-91
2022/01/09 07:03:58;;;;;;;10.10;2.85;;;;;;;-0.20;100.00;100912.20;1524044;94;21154;-91
2022/01/09 07:06:24;;;;;;;8.88;3.40;;;;;;;-0.14;100.00;100900.05;1524650;94;21653;-92
2022/01/09 07:08:50;;;;;;;12.40;2.98;;;;;;;-0.12;100.00;100890.08;1524225;94;21059;-91
2022/01/09 07:11:18;;;;;;;16.40;3.02;;;;;;;-0.15;100.00;100881.99;1524161;94;21777;-91
2022/01/09 07:13:44;;;;;;;9.30;3.00;;;;;;;-0.15;100.00;100889.13;1472167;96;21179;-90
2022/01/09 07:16:10;;;;;;;9.45;3.08;;;;;;;-0.17;100.00;100893.80;1490193;96;21126;-92
2022/01/09 07:18:36;;;;;;;11.57;3.60;;;;;;;-0.16;100.00;100901.55;1490179;96;21621;-90
2022/01/09 07:21:05;;;;;;;36.13;8.25;;;;;;;-0.18;100.00;100885.52;1487431;96;21573;-90
2022/01/09 07:23:31;;;;;;;22.40;5.47;;;;;;;-0.16;100.00;100898.90;1491298;96;21259;-90
2022/01/09 07:25:57;;;;;;;9.78;3.45;;;;;;;-0.16;100.00;100889.62;1490551;96;21285;-91
2022/01/09 07:28:23;;;;;;;14.07;4.62;;;;;;;-0.16;100.00;100887.48;1490000;96;21092;-91
2022/01/09 07:30:52;;;;;;;10.68;3.47;;;;;;;-0.19;100.00;100887.85;1490549;96;21578;-92
2022/01/09 07:33:18;;;;;;;11.78;3.40;;;;;;;-0.18;100.00;100881.54;1498085;95;21599;-93
2022/01/09 07:35:44;;;;;;;9.45;3.83;;;;;;;-0.16;100.00;100884.33;1547829;89;21197;-91
2022/01/09 07:38:10;;;;;;;11.05;4.12;;;;;;;-0.14;100.00;100882.84;1609361;89;21732;-90
2022/01/09 07:40:36;;;;;;;11.15;4.08;;;;;;;-0.17;100.00;100888.50;1601028;89;21168;-91
2022/01/09 07:43:02;;;;;;;10.70;3.40;;;;;;;-0.16;100.00;100880.36;1600721;89;21089;-90
2022/01/09 07:45:59;;;;;;;;;;;;;;;;;;;;;
2022/01/09 07:48:32;;;;;;;10.88;3.77;;;;;;;-0.13;100.00;100884.47;1544466;91;21120;-93
2022/01/09 07:51:05;;;;;;;9.50;3.27;;;;;;;-0.12;100.00;100878.16;1546661;90;21113;-92
2022/01/09 07:53:37;;;;;;;;;;;;;;;;;;;;;
2022/01/09 07:55:57;;;;;;;7.80;2.95;;;;;;;-0.09;100.00;100879.12;1495282;95;21168;-90
2022/01/09 07:58:25;;;;;;;9.08;3.30;;;;;;;-0.07;100.00;100871.82;1422100;99;21125;-91
2022/01/09 08:03:56;;;;;;;11.00;3.27;;;;;;;0.03;100.00;100867.56;1316937;107;21181;-90
2022/01/09 08:06:34;;;;;;;9.03;3.10;;;;;;;0.03;100.00;100867.56;1279092;110;21782;-90
2022/01/09 08:09:13;;;;;;;10.50;3.65;;;;;;;0.04;100.00;100854.66;1277699;110;21420;-91
2022/01/09 08:12:06;;;;;;;;;;;;;;;;;;;;;
2022/01/09 08:14:49;;;;;;;;;;;;;;;;;;;;;
2022/01/09 08:17:17;;;;;;;11.18;3.60;;;;;;;0.04;100.00;100846.20;1197683;117;21244;-91
2022/01/09 08:19:45;;;;;;;9.08;3.58;;;;;;;0.02;100.00;100846.06;1199228;119;21200;-90
2022/01/09 08:22:11;;;;;;;9.00;3.27;;;;;;;-0.01;100.00;100842.77;1199979;118;21436;-90
2022/01/09 08:24:39;;;;;;;9.43;3.52;;;;;;;-0.01;100.00;100836.14;1199817;119;21254;-90
2022/01/09 08:27:07;;;;;;;8.00;2.98;;;;;;;-0.03;100.00;100817.45;1198638;119;21241;-90
2022/01/09 08:29:39;;;;;;;8.68;3.40;;;;;;;-0.03;100.00;100812.16;1197432;119;21581;-89
2022/01/09 08:32:07;;;;;;;10.55;3.67;;;;;;;-0.02;100.00;100806.70;1197505;119;21218;-90
2022/01/09 08:34:35;;;;;;;11.48;3.65;;;;;;;0.01;100.00;100812.64;1209549;117;21260;-89
2022/01/09 08:37:04;;;;;;;12.45;3.20;;;;;;;0.03;100.00;100812.77;1240209;113;21597;-89
2022/01/09 08:39:29;;;;;;;10.45;3.77;;;;;;;0.07;100.00;100806.09;1256031;113;21668;-92
2022/01/09 08:41:55;;;;;;;10.93;3.02;;;;;;;0.10;100.00;100810.20;1244117;114;21116;-91
2022/01/09 08:44:21;;;;;;;10.75;3.42;;;;;;;0.13;100.00;100804.02;1235844;111;21224;-92
2022/01/09 08:46:47;;;;;;;9.33;3.35;;;;;;;0.16;100.00;100812.10;1291734;108;21196;-92
2022/01/09 08:49:13;;;;;;;10.48;3.50;;;;;;;0.17;100.00;100807.92;1319123;108;21082;-90
2022/01/09 08:51:39;;;;;;;8.73;3.05;;;;;;;0.22;100.00;100805.55;1319080;107;21129;-89
2022/01/09 08:54:07;;;;;;;8.50;3.22;;;;;;;0.28;100.00;100806.63;1337984;103;21116;-90
2022/01/09 08:56:36;;;;;;;12.45;3.20;;;;;;;0.35;100.00;100800.07;1390004;103;21178;-90
2022/01/09 08:59:01;;;;;;;11.38;3.77;;;;;;;0.33;100.00;100798.95;1391367;101;22620;-90
2022/01/09 09:01:28;;;;;;;12.95;3.83;;;;;;;0.37;100.00;100804.69;1391254;101;21048;-89
2022/01/09 09:03:54;;;;;;;11.55;3.83;;;;;;;0.38;100.00;100789.94;1369277;103;21098;-91
2022/01/09 09:06:20;;;;;;;11.03;3.90;;;;;;;0.41;100.00;100782.09;1400308;102;20936;-91
2022/01/09 09:08:46;;;;;;;10.80;3.90;;;;;;;0.45;100.00;100772.77;1411531;101;20986;-89
2022/01/09 09:11:13;;;;;;;8.83;3.35;;;;;;;0.46;100.00;100779.70;1437398;98;21211;-89
2022/01/09 09:13:39;;;;;;;9.15;3.58;;;;;;;0.52;100.00;100783.43;1459666;98;21156;-89
2022/01/09 09:16:09;;;;;;;13.53;3.67;;;;;;;0.53;100.00;100774.45;1470581;95;21110;-89
2022/01/09 09:18:35;;;;;;;9.98;3.55;;;;;;;0.54;100.00;100766.33;1503693;95;21185;-89
2022/01/09 09:21:01;;;;;;;9.93;3.90;;;;;;;0.53;100.00;100764.70;1504038;95;21175;-92
2022/01/09 09:23:28;;;;;;;13.25;3.83;;;;;;;0.54;100.00;100758.87;1504259;95;21229;-90
2022/01/09 09:25:54;;;;;;;11.73;3.90;;;;;;;0.52;100.00;100757.73;1504214;95;21655;-89
2022/01/09 09:28:20;;;;;;;9.33;3.60;;;;;;;0.54;100.00;100748.27;1503931;95;21053;-89
2022/01/09 09:30:46;;;;;;;10.68;3.65;;;;;;;0.45;100.00;100731.16;1504402;95;21102;-89
2022/01/09 09:33:12;;;;;;;10.90;3.70;;;;;;;0.56;100.00;100748.41;1513992;90;21152;-88
2022/01/09 09:35:38;;;;;;;8.73;3.40;;;;;;;0.56;100.00;100748.41;1538905;92;21215;-88
2022/01/09 09:38:05;;;;;;;13.45;4.08;;;;;;;0.56;100.00;100746.23;1558206;92;21652;-90
2022/01/09 09:40:32;;;;;;;13.53;4.17;;;;;;;0.60;100.00;100743.02;1578312;90;21030;-90
2022/01/09 09:42:58;;;;;;;14.75;4.17;;;;;;;0.62;100.00;100738.87;1578380;90;21561;-89
2022/01/09 09:45:25;;;;;;;12.60;4.40;;;;;;;0.64;100.00;100738.97;1578649;90;21132;-89
2022/01/09 09:47:52;;;;;;;12.73;4.15;;;;;;;0.68;100.00;100740.25;1580073;90;21186;-89
2022/01/09 09:50:20;;;;;;;15.00;4.37;;;;;;;0.71;100.00;100734.22;1583289;90;21584;-91
2022/01/09 09:52:48;;;;;;;12.82;3.95;;;;;;;0.71;100.00;100736.88;1578586;86;21541;-89
2022/01/09 09:55:17;;;;;;;11.78;3.95;;;;;;;0.72;100.00;100742.00;1638821;86;21526;-90
2022/01/09 09:57:44;;;;;;;15.25;4.40;;;;;;;0.73;100.00;100730.88;1656928;86;21080;-89
2022/01/09 10:00:15;;;;;;;12.37;3.90;;;;;;;0.72;100.00;100734.05;1685155;83;21153;-88
2022/01/09 10:02:58;;;;;;;11.53;4.10;;;;;;;0.73;100.00;100725.06;1673889;84;21495;-90
2022/01/09 10:05:33;;;;;;;13.48;4.67;;;;;;;0.76;100.00;100715.40;1690514;84;21038;-90
2022/01/09 10:08:10;;;;;;;17.10;4.53;;;;;;;0.80;100.00;100715.86;1688144;83;21239;-89
2022/01/09 10:10:39;;;;;;;15.15;4.60;;;;;;;0.79;100.00;100715.02;1681573;85;21015;-89
2022/01/09 10:13:17;;;;;;;16.93;5.92;;;;;;;0.80;100.00;100706.06;1666047;84;21628;-90
2022/01/09 10:15:59;;;;;;;17.48;5.10;;;;;;;0.84;100.00;100703.84;1692992;84;21101;-91
2022/01/09 10:18:48;;;;;;;14.45;5.08;;;;;;;0.82;100.00;100703.20;1608708;88;21572;-90
2022/01/09 10:21:21;;;;;;;16.50;5.47;;;;;;;0.80;100.00;100694.13;1573122;91;21144;-91
2022/01/09 10:23:59;;;;;;;;;;;;;;;0.81;100.00;100683.82;1611693;87;21596;-90
2022/01/09 10:26:25;;;;;;;17.87;5.30;;;;;;;0.81;100.00;100681.17;1578918;90;21019;-89
2022/01/09 10:28:51;;;;;;;16.48;5.67;;;;;;;0.82;100.00;100677.49;1578352;90;21179;-89
2022/01/09 10:31:19;;;;;;;18.12;5.85;;;;;;;0.85;100.00;100673.16;1624365;88;21149;-90
2022/01/09 10:34:07;;;;;;;21.85;5.85;;;;;;;0.89;100.00;100669.60;1623945;88;21156;-89
2022/01/09 10:36:48;;;;;;;18.42;6.17;;;;;;;0.94;100.00;100669.00;1578402;89;21089;-90
2022/01/09 10:39:18;;;;;;;19.92;6.17;;;;;;;0.99;100.00;100663.42;1539437;91;21168;-90
2022/01/09 10:41:55;;;;;;;20.37;6.10;;;;;;;1.02;100.00;100659.56;1539607;91;21591;-90
2022/01/09 10:44:30;;;;;;;23.02;6.90;;;;;;;1.05;100.00;100656.52;1539374;91;21142;-91
2022/01/09 10:47:14;;;;;;;23.57;7.95;;;;;;;1.12;100.00;100661.38;1539589;92;21383;-90
2022/01/09 10:52:37;;;;;;;21.97;6.28;;;;;;;1.23;100.00;100648.04;1493592;96;21069;-92
2022/01/09 10:55:05;;;;;;;21.57;6.97;;;;;;;1.29;100.00;100652.04;1492921;94;21116;-91
2022/01/09 11:00:11;;;;;;;17.77;5.58;;;;;;;1.35;100.00;100638.48;1491893;94;21147;-94
2022/01/09 11:02:41;;;;;;;17.75;6.08;;;;;;;1.38;100.00;100635.44;1482456;96;21056;-93
2022/01/09 11:05:08;;;;;;;16.50;5.75;;;;;;;1.38;100.00;100624.00;1482372;96;21131;-95
2022/01/09 11:07:34;;;;;;;18.42;6.20;;;;;;;1.43;100.00;100625.05;1482368;96;21203;-94
2022/01/09 11:10:01;;;;;;;19.30;6.20;;;;;;;1.42;100.00;100615.45;1482384;96;21158;-94
2022/01/09 11:12:35;;;;;;;14.60;5.70;;;;;;;1.46;100.00;100619.85;1482565;96;21106;-93
2022/01/09 11:15:03;;;;;;;22.95;7.28;;;;;;;1.52;100.00;100620.38;1499284;94;21643;-93
2022/01/09 11:17:30;;;;;;;19.15;6.25;;;;;;;1.55;100.00;100619.98;1518420;94;21192;-94
2022/01/09 11:19:56;;;;;;;17.15;6.55;;;;;;;1.53;100.00;100612.72;1536578;93;21292;-93
2022/01/09 11:22:23;;;;;;;18.90;6.78;;;;;;;1.66;100.00;100627.89;1536979;93;21015;-94
2022/01/09 11:25:10;;;;;;;22.30;6.80;;;;;;;1.68;100.00;100618.70;1570210;91;21198;-94
2022/01/09 11:27:58;;;;;;;27.58;9.75;;;;;;;1.69;100.00;100616.86;1567334;91;21018;-94
2022/01/09 11:30:45;;;;;;;24.00;8.25;;;;;;;1.68;100.00;100611.25;1567851;91;21582;-95
2022/01/09 11:33:31;;;;;;;28.40;9.05;;;;;;;1.66;100.00;100604.80;1558971;92;21145;-95
2022/01/09 11:36:33;;;;;;;23.90;9.48;;;;;;;1.69;100.00;100600.92;1569184;91;21530;-96
2022/01/09 11:39:13;;;;;;;25.30;9.00;;;;;;;1.70;100.00;100590.08;1571532;91;21123;-96
2022/01/09 11:41:45;;;;;;;21.30;7.83;;;;;;;1.68;100.00;100592.14;1575560;90;21138;-95